Terminal Aerodrome Forecast
Issued by NWS

Home | Current Version | Previous Version | Text Only | Print | Product List | Glossary Off
Versions: 1 2 3 4 5 6 7 8 9 10 11 12 13 14 15 16 17 18 19 20 21 22 23 24 25 26 27

000
FTUS43 KTOP 231700
TAFFOE
TAF
KFOE 231729Z 2318/2418 22009KT P6SM BKN013 OVC025
     FM232000 23010KT P6SM BKN025
     FM240000 20006KT P6SM BKN035
     FM240600 18005KT 5SM BR BKN025=

USA.gov is the U.S. government's official web portal to all federal, state and local government web resources and services.